N42ER KFXE-KOPF
Flight info
| Callsign | N42ER |
|---|---|
| Flight time | 0h 38m |
| Altitude | |
| Route | |
| Aircraft | C152/L-DOV/C |
Departure
| Time | 2026-04-26 17:17 |
|---|---|
| Airport | Fort Lauderdale Executive Airport (KFXE) |
Arrival
| Time | 2026-04-26 17:55 |
|---|---|
| Airport | Miami-Opa Locka Executive Airport (KOPF) |
| Time | Latitude | Longitude | Altitude | Speed | Heading |
|---|---|---|---|---|---|
| 2026-04-26 17:09 | 26.19220 | -80.16736 | 16 ft | 0 kts | 211° |
| 2026-04-26 17:12 | 26.19207 | -80.16614 | 15 ft | 11 kts | 15° |
| 2026-04-26 17:12 | 26.19266 | -80.16668 | 14 ft | 13 kts | 307° |
| 2026-04-26 17:13 | 26.19402 | -80.16855 | 14 ft | 17 kts | 310° |
| 2026-04-26 17:13 | 26.19475 | -80.16957 | 16 ft | 16 kts | 309° |
| 2026-04-26 17:13 | 26.19594 | -80.17119 | 18 ft | 14 kts | 311° |
| 2026-04-26 17:14 | 26.19656 | -80.17206 | 19 ft | 14 kts | 310° |
| 2026-04-26 17:14 | 26.19777 | -80.17376 | 19 ft | 9 kts | 309° |
| 2026-04-26 17:14 | 26.19789 | -80.17389 | 19 ft | 0 kts | 326° |
| 2026-04-26 17:16 | 26.19790 | -80.17390 | 19 ft | 3 kts | 335° |
| 2026-04-26 17:16 | 26.19836 | -80.17341 | 18 ft | 11 kts | 84° |
| 2026-04-26 17:16 | 26.19791 | -80.17241 | 20 ft | 30 kts | 129° |
| 2026-04-26 17:16 | 26.19566 | -80.16929 | 65 ft | 63 kts | 131° |
| 2026-04-26 17:17 | 26.19276 | -80.16549 | 262 ft | 67 kts | 131° |
| 2026-04-26 17:17 | 26.18962 | -80.16160 | 474 ft | 67 kts | 135° |
| 2026-04-26 17:17 | 26.18563 | -80.15878 | 671 ft | 69 kts | 153° |
| 2026-04-26 17:17 | 26.18102 | -80.15649 | 802 ft | 80 kts | 154° |
| 2026-04-26 17:18 | 26.17603 | -80.15401 | 1023 ft | 76 kts | 152° |
| 2026-04-26 17:18 | 26.17112 | -80.15147 | 1152 ft | 80 kts | 152° |
| 2026-04-26 17:18 | 26.16631 | -80.14881 | 1320 ft | 78 kts | 149° |
| 2026-04-26 17:18 | 26.16122 | -80.14603 | 1418 ft | 82 kts | 150° |
| 2026-04-26 17:19 | 26.15020 | -80.14013 | 1525 ft | 84 kts | 152° |
| 2026-04-26 17:19 | 26.14493 | -80.13712 | 1627 ft | 86 kts | 149° |
| 2026-04-26 17:19 | 26.13952 | -80.13375 | 1650 ft | 91 kts | 146° |
| 2026-04-26 17:20 | 26.13414 | -80.13020 | 1683 ft | 92 kts | 150° |
| 2026-04-26 17:20 | 26.13038 | -80.12788 | 1659 ft | 91 kts | 150° |
| 2026-04-26 17:20 | 26.12276 | -80.12378 | 1587 ft | 92 kts | 155° |
| 2026-04-26 17:20 | 26.11699 | -80.12118 | 1569 ft | 90 kts | 158° |
| 2026-04-26 17:21 | 26.11119 | -80.11858 | 1557 ft | 88 kts | 156° |
| 2026-04-26 17:21 | 26.10548 | -80.11603 | 1507 ft | 91 kts | 157° |
| 2026-04-26 17:21 | 26.09976 | -80.11378 | 1532 ft | 85 kts | 162° |
| 2026-04-26 17:21 | 26.09362 | -80.11238 | 1421 ft | 92 kts | 169° |
| 2026-04-26 17:22 | 26.08743 | -80.11129 | 1422 ft | 89 kts | 168° |
| 2026-04-26 17:22 | 26.08133 | -80.10985 | 1410 ft | 88 kts | 166° |
| 2026-04-26 17:22 | 26.07516 | -80.10857 | 1447 ft | 91 kts | 167° |
| 2026-04-26 17:22 | 26.06872 | -80.10716 | 1357 ft | 102 kts | 166° |
| 2026-04-26 17:23 | 26.06167 | -80.10524 | 1250 ft | 106 kts | 165° |
| 2026-04-26 17:23 | 26.05412 | -80.10359 | 1010 ft | 112 kts | 172° |
| 2026-04-26 17:23 | 26.04650 | -80.10409 | 910 ft | 108 kts | 185° |
| 2026-04-26 17:23 | 26.03928 | -80.10518 | 802 ft | 106 kts | 185° |
| 2026-04-26 17:24 | 26.03196 | -80.10646 | 717 ft | 103 kts | 185° |
| 2026-04-26 17:24 | 26.02479 | -80.10744 | 606 ft | 103 kts | 182° |
| 2026-04-26 17:24 | 26.01810 | -80.10860 | 588 ft | 98 kts | 185° |
| 2026-04-26 17:24 | 26.01153 | -80.11000 | 580 ft | 92 kts | 184° |
| 2026-04-26 17:25 | 26.00504 | -80.11019 | 530 ft | 93 kts | 176° |
| 2026-04-26 17:25 | 25.99879 | -80.11039 | 574 ft | 91 kts | 180° |
| 2026-04-26 17:25 | 25.99244 | -80.11085 | 582 ft | 94 kts | 180° |
| 2026-04-26 17:25 | 25.98585 | -80.11183 | 495 ft | 98 kts | 189° |
| 2026-04-26 17:26 | 25.97912 | -80.11291 | 389 ft | 100 kts | 185° |
| 2026-04-26 17:26 | 25.97258 | -80.11396 | 477 ft | 91 kts | 183° |
| 2026-04-26 17:26 | 25.96634 | -80.11479 | 440 ft | 87 kts | 180° |
| 2026-04-26 17:26 | 25.96012 | -80.11504 | 454 ft | 86 kts | 175° |
| 2026-04-26 17:27 | 25.95398 | -80.11432 | 427 ft | 90 kts | 174° |
| 2026-04-26 17:27 | 25.94762 | -80.11427 | 450 ft | 92 kts | 179° |
| 2026-04-26 17:27 | 25.94144 | -80.11473 | 479 ft | 91 kts | 182° |
| 2026-04-26 17:27 | 25.93481 | -80.11451 | 394 ft | 97 kts | 171° |
| 2026-04-26 17:28 | 25.92830 | -80.11501 | 462 ft | 94 kts | 182° |
| 2026-04-26 17:28 | 25.92181 | -80.11558 | 475 ft | 91 kts | 179° |
| 2026-04-26 17:28 | 25.91546 | -80.11573 | 430 ft | 92 kts | 180° |
| 2026-04-26 17:28 | 25.90914 | -80.11580 | 408 ft | 89 kts | 179° |
| 2026-04-26 17:29 | 25.90295 | -80.11572 | 454 ft | 90 kts | 177° |
| 2026-04-26 17:29 | 25.89894 | -80.11577 | 501 ft | 86 kts | 180° |
| 2026-04-26 17:29 | 25.89073 | -80.11514 | 502 ft | 90 kts | 172° |
| 2026-04-26 17:29 | 25.88450 | -80.11470 | 467 ft | 93 kts | 179° |
| 2026-04-26 17:30 | 25.87798 | -80.11446 | 430 ft | 92 kts | 176° |
| 2026-04-26 17:30 | 25.87171 | -80.11434 | 421 ft | 88 kts | 177° |
| 2026-04-26 17:30 | 25.86549 | -80.11456 | 335 ft | 88 kts | 179° |
| 2026-04-26 17:30 | 25.85964 | -80.11508 | 390 ft | 83 kts | 184° |
| 2026-04-26 17:31 | 25.85383 | -80.11509 | 356 ft | 78 kts | 171° |
| 2026-04-26 17:31 | 25.84839 | -80.11459 | 256 ft | 86 kts | 182° |
| 2026-04-26 17:31 | 25.84277 | -80.11502 | 314 ft | 78 kts | 184° |
| 2026-04-26 17:31 | 25.83753 | -80.11597 | 361 ft | 81 kts | 185° |
| 2026-04-26 17:32 | 25.83217 | -80.11567 | 340 ft | 73 kts | 162° |
| 2026-04-26 17:32 | 25.82735 | -80.11331 | 381 ft | 82 kts | 170° |
| 2026-04-26 17:32 | 25.82177 | -80.11503 | 392 ft | 88 kts | 192° |
| 2026-04-26 17:32 | 25.81570 | -80.11679 | 370 ft | 94 kts | 188° |
| 2026-04-26 17:33 | 25.80957 | -80.11776 | 440 ft | 86 kts | 182° |
| 2026-04-26 17:33 | 25.80339 | -80.11886 | 350 ft | 95 kts | 179° |
| 2026-04-26 17:33 | 25.79703 | -80.11953 | 477 ft | 90 kts | 183° |
| 2026-04-26 17:34 | 25.78497 | -80.12244 | 545 ft | 94 kts | 198° |
| 2026-04-26 17:34 | 25.77864 | -80.12489 | 591 ft | 87 kts | 198° |
| 2026-04-26 17:34 | 25.77244 | -80.12749 | 444 ft | 97 kts | 188° |
| 2026-04-26 17:34 | 25.76598 | -80.12829 | 398 ft | 96 kts | 182° |
| 2026-04-26 17:35 | 25.75978 | -80.13001 | 587 ft | 78 kts | 194° |
| 2026-04-26 17:35 | 25.75562 | -80.13505 | 484 ft | 95 kts | 247° |
| 2026-04-26 17:35 | 25.75559 | -80.14264 | 415 ft | 101 kts | 269° |
| 2026-04-26 17:35 | 25.75661 | -80.15035 | 440 ft | 101 kts | 275° |
| 2026-04-26 17:36 | 25.75794 | -80.15792 | 412 ft | 99 kts | 274° |
| 2026-04-26 17:36 | 25.75876 | -80.16559 | 316 ft | 99 kts | 271° |
| 2026-04-26 17:36 | 25.75913 | -80.17296 | 342 ft | 96 kts | 261° |
| 2026-04-26 17:36 | 25.75704 | -80.17967 | 394 ft | 88 kts | 231° |
| 2026-04-26 17:37 | 25.75357 | -80.18537 | 424 ft | 88 kts | 228° |
| 2026-04-26 17:37 | 25.74998 | -80.19076 | 505 ft | 87 kts | 226° |
| 2026-04-26 17:37 | 25.74752 | -80.19438 | 528 ft | 91 kts | 226° |
| 2026-04-26 17:38 | 25.74158 | -80.20620 | 756 ft | 86 kts | 253° |
| 2026-04-26 17:38 | 25.74233 | -80.21450 | 911 ft | 84 kts | 280° |
| 2026-04-26 17:38 | 25.74443 | -80.22049 | 1069 ft | 88 kts | 298° |
| 2026-04-26 17:38 | 25.74598 | -80.22702 | 1244 ft | 86 kts | 254° |
| 2026-04-26 17:39 | 25.74275 | -80.23290 | 1284 ft | 95 kts | 227° |
| 2026-04-26 17:39 | 25.74017 | -80.23657 | 1450 ft | 85 kts | 226° |
| 2026-04-26 17:39 | 25.73638 | -80.24134 | 1661 ft | 83 kts | 219° |
| 2026-04-26 17:39 | 25.73146 | -80.24582 | 1666 ft | 92 kts | 209° |
| 2026-04-26 17:40 | 25.72652 | -80.24995 | 1786 ft | 89 kts | 217° |
| 2026-04-26 17:40 | 25.72351 | -80.25307 | 1867 ft | 90 kts | 220° |
| 2026-04-26 17:40 | 25.71696 | -80.25927 | 1942 ft | 98 kts | 217° |
| 2026-04-26 17:40 | 25.71205 | -80.26444 | 2026 ft | 95 kts | 225° |
| 2026-04-26 17:41 | 25.70861 | -80.27041 | 2237 ft | 88 kts | 242° |
| 2026-04-26 17:41 | 25.70643 | -80.27703 | 2344 ft | 94 kts | 253° |
| 2026-04-26 17:41 | 25.70636 | -80.28442 | 2448 ft | 97 kts | 277° |
| 2026-04-26 17:41 | 25.70767 | -80.29199 | 2504 ft | 100 kts | 277° |
| 2026-04-26 17:42 | 25.70905 | -80.29986 | 2551 ft | 101 kts | 277° |
| 2026-04-26 17:42 | 25.70928 | -80.30738 | 2673 ft | 96 kts | 257° |
| 2026-04-26 17:42 | 25.70669 | -80.31476 | 2565 ft | 107 kts | 241° |
| 2026-04-26 17:42 | 25.70443 | -80.32242 | 2589 ft | 106 kts | 266° |
| 2026-04-26 17:43 | 25.70647 | -80.33011 | 2617 ft | 106 kts | 300° |
| 2026-04-26 17:43 | 25.71229 | -80.33412 | 2644 ft | 108 kts | 5° |
| 2026-04-26 17:43 | 25.71824 | -80.32915 | 2644 ft | 107 kts | 69° |
| 2026-04-26 17:43 | 25.71907 | -80.32124 | 2674 ft | 106 kts | 86° |
| 2026-04-26 17:44 | 25.72076 | -80.31311 | 2621 ft | 114 kts | 76° |
| 2026-04-26 17:44 | 25.72327 | -80.30489 | 2611 ft | 111 kts | 76° |
| 2026-04-26 17:44 | 25.72531 | -80.29669 | 2641 ft | 106 kts | 70° |
| 2026-04-26 17:44 | 25.73086 | -80.29067 | 2482 ft | 121 kts | 22° |
| 2026-04-26 17:45 | 25.73912 | -80.28891 | 2379 ft | 120 kts | 7° |
| 2026-04-26 17:45 | 25.74726 | -80.28785 | 2360 ft | 116 kts | 7° |
| 2026-04-26 17:45 | 25.75536 | -80.28627 | 2306 ft | 120 kts | 13° |
| 2026-04-26 17:45 | 25.76321 | -80.28418 | 2364 ft | 108 kts | 16° |
| 2026-04-26 17:46 | 25.77065 | -80.28231 | 2370 ft | 113 kts | 11° |
| 2026-04-26 17:46 | 25.77837 | -80.28117 | 2392 ft | 111 kts | 6° |
| 2026-04-26 17:46 | 25.78624 | -80.28016 | 2358 ft | 116 kts | 9° |
| 2026-04-26 17:46 | 25.79381 | -80.27875 | 2496 ft | 105 kts | 2° |
| 2026-04-26 17:47 | 25.80137 | -80.27951 | 2445 ft | 116 kts | 355° |
| 2026-04-26 17:47 | 25.80648 | -80.27954 | 2500 ft | 111 kts | 2° |
| 2026-04-26 17:47 | 25.81619 | -80.27992 | 2575 ft | 110 kts | 358° |
| 2026-04-26 17:47 | 25.82410 | -80.27987 | 2474 ft | 119 kts | 359° |
| 2026-04-26 17:48 | 25.83171 | -80.28048 | 2526 ft | 113 kts | 356° |
| 2026-04-26 17:48 | 25.83995 | -80.28056 | 2404 ft | 122 kts | 2° |
| 2026-04-26 17:48 | 25.84834 | -80.27991 | 2459 ft | 123 kts | 6° |
| 2026-04-26 17:48 | 25.85680 | -80.27906 | 2416 ft | 125 kts | 4° |
| 2026-04-26 17:49 | 25.86584 | -80.27863 | 2258 ft | 134 kts | 359° |
| 2026-04-26 17:49 | 25.87505 | -80.27841 | 2286 ft | 121 kts | 2° |
| 2026-04-26 17:49 | 25.88273 | -80.27880 | 2347 ft | 104 kts | 356° |
| 2026-04-26 17:49 | 25.89066 | -80.27835 | 2338 ft | 123 kts | 5° |
| 2026-04-26 17:50 | 25.89935 | -80.27740 | 2369 ft | 128 kts | 6° |
| 2026-04-26 17:50 | 25.90841 | -80.27653 | 2266 ft | 131 kts | 5° |
| 2026-04-26 17:50 | 25.91734 | -80.27561 | 2094 ft | 128 kts | 8° |
| 2026-04-26 17:50 | 25.92557 | -80.27437 | 2056 ft | 115 kts | 8° |
| 2026-04-26 17:51 | 25.93343 | -80.27391 | 1929 ft | 113 kts | 353° |
| 2026-04-26 17:51 | 25.94043 | -80.27744 | 1689 ft | 115 kts | 314° |
| 2026-04-26 17:51 | 25.94294 | -80.28513 | 1530 ft | 102 kts | 272° |
| 2026-04-26 17:51 | 25.94365 | -80.29285 | 1438 ft | 99 kts | 269° |
| 2026-04-26 17:52 | 25.94403 | -80.30048 | 1462 ft | 97 kts | 271° |
| 2026-04-26 17:52 | 25.94457 | -80.30800 | 1414 ft | 99 kts | 274° |
| 2026-04-26 17:52 | 25.94497 | -80.31536 | 1447 ft | 94 kts | 271° |
| 2026-04-26 17:52 | 25.94414 | -80.32264 | 1365 ft | 99 kts | 241° |
| 2026-04-26 17:53 | 25.93865 | -80.32722 | 1287 ft | 100 kts | 188° |
| 2026-04-26 17:53 | 25.93144 | -80.32712 | 1068 ft | 101 kts | 176° |
| 2026-04-26 17:53 | 25.92509 | -80.32612 | 1119 ft | 91 kts | 170° |
| 2026-04-26 17:54 | 25.91342 | -80.32179 | 979 ft | 97 kts | 102° |
| 2026-04-26 17:54 | 25.91232 | -80.31474 | 849 ft | 89 kts | 108° |
| 2026-04-26 17:54 | 25.91193 | -80.30797 | 607 ft | 77 kts | 97° |
| 2026-04-26 17:54 | 25.91224 | -80.30219 | 457 ft | 73 kts | 98° |
| 2026-04-26 17:55 | 25.91229 | -80.29640 | 313 ft | 77 kts | 90° |
| 2026-04-26 17:55 | 25.91253 | -80.29090 | 135 ft | 70 kts | 98° |
| 2026-04-26 17:55 | 25.91281 | -80.28573 | 27 ft | 62 kts | 96° |
| 2026-04-26 17:55 | 25.91304 | -80.28190 | 6 ft | 37 kts | 93° |
| 2026-04-26 17:56 | 25.91303 | -80.27959 | 6 ft | 23 kts | 105° |
| 2026-04-26 17:56 | 25.91220 | -80.27901 | 6 ft | 0 kts | 183° |
| 2026-04-26 17:57 | 25.91217 | -80.27901 | 6 ft | 5 kts | 180° |
| 2026-04-26 17:57 | 25.91176 | -80.27842 | 8 ft | 12 kts | 86° |
| 2026-04-26 17:58 | 25.91194 | -80.27485 | 10 ft | 19 kts | 84° |
| 2026-04-26 17:59 | 25.91209 | -80.27194 | 15 ft | 23 kts | 90° |
| 2026-04-26 17:59 | 25.91208 | -80.27036 | 13 ft | 11 kts | 116° |
| 2026-04-26 17:59 | 25.91137 | -80.27021 | 12 ft | 11 kts | 180° |
| 2026-04-26 17:59 | 25.91056 | -80.26999 | 13 ft | 15 kts | 100° |
| 2026-04-26 18:00 | 25.91101 | -80.26900 | 12 ft | 13 kts | 19° |
| 2026-04-26 18:00 | 25.91103 | -80.26916 | 12 ft | 4 kts | 165° |
| 2026-04-26 18:00 | 25.91097 | -80.26915 | 12 ft | 0 kts | 177° |